createdAt,value
2019-01-27T00:01:37.678Z,94226.06
2019-01-27T00:04:46.304Z,94223.95
2019-01-27T00:07:15.490Z,94213.23
2019-01-27T00:09:44.746Z,94201.47
2019-01-27T00:12:13.925Z,94201.80
2019-01-27T00:14:43.116Z,94201.34
2019-01-27T00:17:12.370Z,94195.02
2019-01-27T00:19:41.573Z,94188.92
2019-01-27T00:22:10.809Z,94183.42
2019-01-27T00:24:39.993Z,94177.84
2019-01-27T00:27:09.232Z,94163.14
2019-01-27T00:29:38.412Z,94153.20
2019-01-27T00:32:07.599Z,94148.65
2019-01-27T00:34:36.896Z,94143.52
2019-01-27T00:37:06.083Z,94143.15
2019-01-27T00:39:35.315Z,94140.58
2019-01-27T00:42:04.809Z,94137.31
2019-01-27T00:44:34.048Z,94132.39
2019-01-27T00:47:03.247Z,94126.34
2019-01-27T00:49:32.489Z,94124.11
2019-01-27T00:52:02.005Z,94125.39
2019-01-27T00:54:31.376Z,94120.26
2019-01-27T00:57:00.690Z,94117.28
2019-01-27T00:59:29.940Z,94112.28
2019-01-27T01:01:59.129Z,94110.87
2019-01-27T01:04:28.710Z,94107.60
2019-01-27T01:06:57.895Z,94105.37
2019-01-27T01:09:27.131Z,94110.75
2019-01-27T01:11:56.607Z,94113.80
2019-01-27T01:14:26.220Z,94108.55
2019-01-27T01:16:55.402Z,94103.30
2019-01-27T01:19:24.638Z,94109.25
2019-01-27T01:21:53.817Z,94104.46
2019-01-27T01:24:23.056Z,94098.88
2019-01-27T01:26:52.618Z,94097.26
2019-01-27T01:29:21.864Z,94095.48
2019-01-27T01:31:51.043Z,94092.13
2019-01-27T01:34:20.339Z,94089.65
2019-01-27T01:36:49.808Z,94085.96
2019-01-27T01:39:19.050Z,94087.57
2019-01-27T01:41:48.231Z,94076.03
2019-01-27T01:44:18.124Z,94077.19
2019-01-27T01:46:47.293Z,94071.36
2019-01-27T01:49:16.539Z,94062.87
2019-01-27T01:51:45.719Z,94053.98
2019-01-27T01:54:14.966Z,94052.49
2019-01-27T01:56:44.153Z,94050.38
2019-01-27T01:59:13.398Z,94045.04
2019-01-27T02:01:42.608Z,94045.38
2019-01-27T02:04:11.836Z,94042.59
2019-01-27T02:06:41.071Z,94034.32
2019-01-27T02:09:13.083Z,94028.45
2019-01-27T02:11:42.256Z,94023.33
2019-01-27T02:14:11.874Z,94023.69
2019-01-27T02:16:41.055Z,94016.13
2019-01-27T02:19:10.232Z,94017.16
2019-01-27T02:21:39.472Z,94021.50
2019-01-27T02:24:08.751Z,94009.70
2019-01-27T02:26:37.992Z,94007.81
2019-01-27T02:29:07.169Z,94000.95
2019-01-27T02:31:36.506Z,94001.73
2019-01-27T02:34:05.964Z,93992.43
2019-01-27T02:36:35.198Z,93986.60
2019-01-27T02:42:14.895Z,93977.59
2019-01-27T02:44:44.082Z,93966.42
2019-01-27T02:47:13.349Z,93963.03
2019-01-27T02:49:42.540Z,93962.58
2019-01-27T02:52:11.724Z,93958.36
2019-01-27T02:54:40.961Z,93948.35
2019-01-27T02:57:10.151Z,93945.33
2019-01-27T02:59:39.380Z,93936.69
2019-01-27T03:02:08.654Z,93931.08
2019-01-27T03:04:37.886Z,93922.57
2019-01-27T03:07:46.472Z,93926.05
2019-01-27T03:10:16.216Z,93914.51
2019-01-27T03:12:45.742Z,93913.93
2019-01-27T03:15:54.368Z,93913.84
2019-01-27T03:18:23.550Z,93914.17
2019-01-27T03:20:52.792Z,93911.03
2019-01-27T03:23:21.972Z,93903.92
2019-01-27T03:25:51.200Z,93901.81
2019-01-27T03:28:20.384Z,93897.64
2019-01-27T03:30:49.638Z,93891.69
2019-01-27T03:33:18.830Z,93884.91
2019-01-27T03:35:55.430Z,93880.73
2019-01-27T03:38:24.612Z,93875.36
2019-01-27T03:40:53.791Z,93877.92
2019-01-27T03:43:23.030Z,93859.28
2019-01-27T03:45:52.211Z,93853.81
2019-01-27T03:48:21.437Z,93846.22
2019-01-27T03:50:50.629Z,93837.01
2019-01-27T03:53:19.857Z,93833.75
2019-01-27T03:55:49.446Z,93818.16
2019-01-27T03:58:18.680Z,93817.58
2019-01-27T04:00:47.862Z,93830.25
2019-01-27T04:03:17.410Z,93813.71
2019-01-27T04:05:46.921Z,93811.50
2019-01-27T04:08:16.212Z,93811.73
2019-01-27T04:10:45.733Z,93798.34
2019-01-27T04:13:15.002Z,93803.23
2019-01-27T04:15:44.216Z,93801.27
2019-01-27T04:18:13.413Z,93796.58
2019-01-27T04:20:42.644Z,93794.03
2019-01-27T04:23:12.123Z,93784.47
2019-01-27T04:25:43.337Z,93781.33
2019-01-27T04:28:12.509Z,93777.34
2019-01-27T04:30:41.755Z,93779.93
2019-01-27T04:33:10.930Z,93774.67
2019-01-27T04:35:40.573Z,93770.16
2019-01-27T04:38:09.768Z,93779.23
2019-01-27T04:40:38.999Z,93774.70
2019-01-27T04:43:08.195Z,93772.13
2019-01-27T04:48:14.215Z,93765.58
2019-01-27T04:50:43.449Z,93760.34
2019-01-27T04:53:12.633Z,93759.19
2019-01-27T04:55:41.888Z,93755.56
2019-01-27T04:58:11.086Z,93744.50
2019-01-27T05:00:40.252Z,93747.98
2019-01-27T05:03:28.481Z,93744.84
2019-01-27T05:05:57.660Z,93736.83
2019-01-27T05:08:26.900Z,93743.33
2019-01-27T05:10:56.080Z,93741.71
2019-01-27T05:13:25.329Z,93737.16
2019-01-27T05:15:54.507Z,93732.64
2019-01-27T05:18:24.094Z,93733.91
2019-01-27T05:20:53.275Z,93729.02
2019-01-27T05:23:22.512Z,93727.52
2019-01-27T05:25:52.100Z,93719.14
2019-01-27T05:28:21.348Z,93714.81
2019-01-27T05:30:50.868Z,93717.02
2019-01-27T05:33:20.474Z,93720.08
2019-01-27T05:35:49.712Z,93716.10
2019-01-27T05:38:18.976Z,93717.52
2019-01-27T05:40:48.163Z,93719.25
2019-01-27T05:43:17.362Z,93713.08
2019-01-27T05:45:46.983Z,93711.56
2019-01-27T05:48:35.163Z,93704.44
2019-01-27T05:51:04.452Z,93692.09
2019-01-27T05:53:33.783Z,93693.95
2019-01-27T05:56:03.042Z,93691.61
2019-01-27T05:58:32.235Z,93686.00
2019-01-27T06:01:01.484Z,93676.22
2019-01-27T06:03:31.018Z,93675.50
2019-01-27T06:06:00.252Z,93679.70
2019-01-27T06:08:29.441Z,93678.88
2019-01-27T06:10:58.691Z,93674.19
2019-01-27T06:13:27.883Z,93667.41
2019-01-27T06:15:57.149Z,93660.77
2019-01-27T06:18:26.326Z,93644.33
2019-01-27T06:20:55.506Z,93642.69
2019-01-27T06:23:24.742Z,93644.79
2019-01-27T06:25:53.925Z,93647.45
2019-01-27T06:28:23.151Z,93641.73
2019-01-27T06:30:52.344Z,93631.59
2019-01-27T06:33:26.445Z,93635.09
2019-01-27T06:35:55.682Z,93633.12
2019-01-27T06:38:24.918Z,93636.17
2019-01-27T06:40:54.104Z,93632.44
2019-01-27T06:43:23.346Z,93627.44
2019-01-27T06:45:52.951Z,93625.92
2019-01-27T06:48:22.139Z,93631.05
2019-01-27T06:50:51.316Z,93622.34
2019-01-27T06:53:20.584Z,93619.78
2019-01-27T06:55:49.818Z,93607.05
2019-01-27T06:58:19.037Z,93608.20
2019-01-27T07:01:07.151Z,93608.98
2019-01-27T07:03:55.329Z,93598.48
2019-01-27T07:06:43.492Z,93605.36
2019-01-27T07:09:31.801Z,93596.93
2019-01-27T07:12:20.233Z,93599.34
2019-01-27T07:15:08.408Z,93593.16
2019-01-27T07:17:56.564Z,93583.22
2019-01-27T07:20:44.763Z,93583.31
2019-01-27T07:23:33.160Z,93569.88
2019-01-27T07:26:21.326Z,93571.77
2019-01-27T07:29:09.448Z,93566.03
2019-01-27T07:31:57.722Z,93562.00
2019-01-27T07:34:45.841Z,93552.28
2019-01-27T07:37:34.067Z,93548.67
2019-01-27T07:40:22.343Z,93544.89
2019-01-27T07:43:10.502Z,93544.20
2019-01-27T07:45:58.680Z,93544.27
2019-01-27T07:48:47.221Z,93544.59
2019-01-27T07:51:35.427Z,93530.84
2019-01-27T07:57:32.235Z,93536.95
2019-01-27T08:00:20.353Z,93522.75
2019-01-27T08:03:12.112Z,93524.06
2019-01-27T08:05:46.497Z,93513.36
2019-01-27T08:08:34.671Z,93515.92
2019-01-27T08:11:22.876Z,93516.20
2019-01-27T08:14:11.052Z,93513.73
2019-01-27T08:16:59.365Z,93519.45
2019-01-27T08:19:47.534Z,93522.92
2019-01-27T08:22:35.672Z,93521.72
2019-01-27T08:25:44.340Z,93527.97
2019-01-27T08:28:33.842Z,93516.03
2019-01-27T08:31:22.802Z,93518.91
2019-01-27T08:34:10.913Z,93516.31
2019-01-27T08:36:59.155Z,93511.03
2019-01-27T08:39:47.597Z,93503.98
2019-01-27T08:42:35.711Z,93495.41
2019-01-27T08:45:44.694Z,93498.45
2019-01-27T08:48:14.005Z,93498.02
2019-01-27T08:50:43.240Z,93486.52
2019-01-27T08:53:12.754Z,93491.59
2019-01-27T08:55:42.722Z,93491.03
2019-01-27T08:58:11.899Z,93488.62
2019-01-27T09:03:42.499Z,93482.29
2019-01-27T09:06:30.667Z,93482.42
2019-01-27T09:09:19.461Z,93479.85
2019-01-27T09:12:00.132Z,93479.58
2019-01-27T09:14:48.242Z,93472.52
2019-01-27T09:17:36.407Z,93469.06
2019-01-27T09:20:26.483Z,93469.77
2019-01-27T09:23:14.705Z,93460.17
2019-01-27T09:25:59.523Z,93454.34
2019-01-27T09:28:33.487Z,93455.02
2019-01-27T09:31:21.600Z,93449.68
2019-01-27T09:34:13.296Z,93446.08
2019-01-27T09:36:59.790Z,93444.27
2019-01-27T09:39:47.966Z,93441.91
2019-01-27T09:42:36.075Z,93440.55
2019-01-27T09:45:57.620Z,93448.51
2019-01-27T09:48:34.580Z,93455.55
2019-01-27T09:51:22.757Z,93448.38
2019-01-27T09:54:11.205Z,93436.88
2019-01-27T09:56:59.321Z,93442.79
2019-01-27T09:59:47.485Z,93438.18
2019-01-27T10:02:35.734Z,93444.81
2019-01-27T10:05:44.534Z,93440.88
2019-01-27T10:08:32.649Z,93441.15
2019-01-27T10:11:10.833Z,93444.80
2019-01-27T10:13:58.943Z,93441.98
2019-01-27T10:16:47.108Z,93443.31
2019-01-27T10:19:23.719Z,93443.44
2019-01-27T10:22:11.886Z,93431.66
2019-01-27T10:25:00.005Z,93426.92
2019-01-27T10:27:35.820Z,93417.72
2019-01-27T10:30:45.832Z,93406.24
2019-01-27T10:33:34.122Z,93406.63
2019-01-27T10:36:14.243Z,93388.93
2019-01-27T10:39:21.423Z,93361.35
2019-01-27T10:42:06.107Z,93352.03
2019-01-27T10:44:54.278Z,93339.58
2019-01-27T10:47:42.391Z,93343.20
2019-01-27T10:50:32.785Z,93336.95
2019-01-27T10:53:21.114Z,93332.50
2019-01-27T10:55:56.526Z,93329.33
2019-01-27T10:58:44.638Z,93335.80
2019-01-27T11:01:32.810Z,93333.13
2019-01-27T11:04:20.998Z,93319.81
2019-01-27T11:07:09.402Z,93317.30
2019-01-27T11:09:54.546Z,93314.95
2019-01-27T11:12:40.971Z,93307.31
2019-01-27T11:15:33.446Z,93301.65
2019-01-27T11:18:23.216Z,93299.58
2019-01-27T11:21:11.377Z,93302.67
2019-01-27T11:23:59.487Z,93284.16
2019-01-27T11:26:45.540Z,93283.07
2019-01-27T11:29:33.659Z,93270.83
2019-01-27T11:32:22.160Z,93275.78
2019-01-27T11:35:10.279Z,93267.76
2019-01-27T11:37:58.497Z,93260.98
2019-01-27T11:40:46.747Z,93254.70
2019-01-27T11:43:34.922Z,93247.48
2019-01-27T11:46:23.402Z,93252.16
2019-01-27T11:49:30.578Z,93255.02
2019-01-27T11:52:03.779Z,93262.95
2019-01-27T11:54:33.014Z,93251.15
2019-01-27T11:57:02.197Z,93243.13
2019-01-27T11:59:31.554Z,93238.50
2019-01-27T12:02:19.801Z,93230.62
2019-01-27T12:04:49.041Z,93224.80
2019-01-27T12:07:18.219Z,93218.81
2019-01-27T12:09:47.544Z,93219.83
2019-01-27T12:12:17.106Z,93212.27
2019-01-27T12:14:46.632Z,93208.89
2019-01-27T12:17:17.193Z,93199.68
2019-01-27T12:19:46.438Z,93196.64
2019-01-27T12:22:15.655Z,93192.17
2019-01-27T12:24:44.852Z,93181.52
2019-01-27T12:27:14.443Z,93178.94
2019-01-27T12:29:43.624Z,93180.40
2019-01-27T12:32:12.943Z,93175.72
2019-01-27T12:34:42.139Z,93168.97
2019-01-27T12:37:11.742Z,93162.00
2019-01-27T12:39:40.928Z,93161.81
2019-01-27T12:42:10.299Z,93160.88
2019-01-27T12:47:27.758Z,93164.28
2019-01-27T12:49:56.944Z,93160.88
2019-01-27T12:52:26.167Z,93159.42
2019-01-27T12:54:55.952Z,93158.31
2019-01-27T12:57:25.232Z,93152.84
2019-01-27T12:59:54.413Z,93152.55
2019-01-27T13:02:23.993Z,93155.27
2019-01-27T13:04:53.185Z,93160.47
2019-01-27T13:07:22.362Z,93149.92
2019-01-27T13:09:51.610Z,93158.02
2019-01-27T13:12:21.095Z,93155.31
2019-01-27T13:14:50.338Z,93150.80
2019-01-27T13:17:19.528Z,93150.33
2019-01-27T13:19:53.735Z,93153.72
2019-01-27T13:22:19.684Z,93152.27
2019-01-27T13:27:23.423Z,93150.63
2019-01-27T13:29:52.661Z,93143.54
2019-01-27T13:32:21.846Z,93146.29
2019-01-27T13:37:25.339Z,93146.97
2019-01-27T13:39:55.062Z,93140.17
2019-01-27T13:42:24.250Z,93147.27
2019-01-27T13:44:53.482Z,93144.87
2019-01-27T13:47:22.670Z,93151.32
2019-01-27T13:49:51.921Z,93145.81
2019-01-27T13:52:21.102Z,93136.34
2019-01-27T13:54:50.282Z,93129.72
2019-01-27T13:57:19.531Z,93134.55
2019-01-27T13:59:48.716Z,93121.80
2019-01-27T14:02:17.956Z,93114.19
2019-01-27T14:04:48.570Z,93124.34
2019-01-27T14:07:18.189Z,93137.09
2019-01-27T14:09:47.489Z,93125.16
2019-01-27T14:12:16.751Z,93127.74
2019-01-27T14:14:45.914Z,93144.86
2019-01-27T14:17:15.427Z,93147.92
2019-01-27T14:19:44.732Z,93145.00
2019-01-27T14:22:13.961Z,93132.56
2019-01-27T14:24:43.141Z,93125.77
2019-01-27T14:27:12.714Z,93129.97
2019-01-27T14:29:41.901Z,93121.37
2019-01-27T14:32:11.134Z,93113.95
2019-01-27T14:34:40.309Z,93106.87
2019-01-27T14:37:09.571Z,93094.25
2019-01-27T14:39:38.793Z,93106.33
2019-01-27T14:42:07.963Z,93103.52
2019-01-27T14:44:37.211Z,93108.17
2019-01-27T14:47:06.410Z,93099.73
2019-01-27T14:49:35.633Z,93098.25
2019-01-27T14:52:04.911Z,93092.64
2019-01-27T14:54:34.482Z,93098.59
2019-01-27T14:57:03.674Z,93102.76
2019-01-27T14:59:32.909Z,93097.59
2019-01-27T15:02:02.079Z,93084.88
2019-01-27T15:04:31.333Z,93077.14
2019-01-27T15:07:00.514Z,93085.98
2019-01-27T15:09:30.400Z,93086.29
2019-01-27T15:11:59.580Z,93090.98
2019-01-27T15:14:28.810Z,93098.08
2019-01-27T15:16:58.378Z,93096.31
2019-01-27T15:19:27.605Z,93080.54
2019-01-27T15:21:56.783Z,93080.56
2019-01-27T15:24:26.025Z,93076.69
2019-01-27T15:26:55.197Z,93080.92
2019-01-27T15:29:24.434Z,93083.97
2019-01-27T15:31:53.612Z,93090.70
2019-01-27T15:34:22.914Z,93098.45
2019-01-27T15:36:52.121Z,93077.67
2019-01-27T15:39:21.665Z,93088.39
2019-01-27T15:41:50.898Z,93082.61
2019-01-27T15:44:20.085Z,93082.83
2019-01-27T15:46:49.315Z,93081.05
2019-01-27T15:49:18.485Z,93081.69
2019-01-27T15:51:48.369Z,93082.67
2019-01-27T15:54:17.553Z,93082.84
2019-01-27T15:56:46.786Z,93092.42
2019-01-27T15:59:15.967Z,93087.69
2019-01-27T16:01:45.206Z,93097.96
2019-01-27T16:04:14.380Z,93093.92
2019-01-27T16:06:43.562Z,93106.18
2019-01-27T16:09:12.795Z,93100.38
2019-01-27T16:11:41.976Z,93099.60
2019-01-27T16:14:11.219Z,93100.25
2019-01-27T16:16:40.755Z,93103.95
2019-01-27T16:19:09.985Z,93097.48
2019-01-27T16:21:39.163Z,93103.95
2019-01-27T16:26:53.934Z,93097.85
2019-01-27T16:32:34.007Z,93094.27
2019-01-27T16:35:06.678Z,93091.53
2019-01-27T16:37:35.859Z,93092.62
2019-01-27T16:40:44.976Z,93093.93
2019-01-27T16:43:14.153Z,93099.88
2019-01-27T16:45:43.400Z,93104.86
2019-01-27T16:48:31.650Z,93104.70
2019-01-27T16:51:00.898Z,93103.72
2019-01-27T16:53:30.078Z,93094.54
2019-01-27T16:55:59.317Z,93093.61
2019-01-27T16:58:28.488Z,93094.02
2019-01-27T17:00:58.044Z,93083.76
2019-01-27T17:03:27.218Z,93085.98
2019-01-27T17:05:56.748Z,93084.97
2019-01-27T17:08:26.290Z,93085.31
2019-01-27T17:10:55.527Z,93099.30
2019-01-27T17:13:24.714Z,93084.47
2019-01-27T17:15:53.946Z,93081.45
2019-01-27T17:18:23.126Z,93080.62
2019-01-27T17:20:52.374Z,93076.14
2019-01-27T17:23:21.571Z,93062.43
2019-01-27T17:25:53.647Z,93070.96
2019-01-27T17:28:22.194Z,93068.41
2019-01-27T17:30:51.457Z,93064.27
2019-01-27T17:33:20.737Z,93064.08
2019-01-27T17:35:49.913Z,93067.13
2019-01-27T17:38:19.491Z,93064.42
2019-01-27T17:40:48.721Z,93062.96
2019-01-27T17:43:17.964Z,93059.67
2019-01-27T17:45:47.157Z,93055.81
2019-01-27T17:48:16.402Z,93060.31
2019-01-27T17:50:45.600Z,93061.14
2019-01-27T17:53:14.915Z,93059.84
2019-01-27T17:55:45.224Z,93063.44
2019-01-27T17:58:36.397Z,93064.38
2019-01-27T18:01:45.254Z,93062.67
2019-01-27T18:04:33.427Z,93064.57
2019-01-27T18:07:21.924Z,93056.19
2019-01-27T18:10:10.483Z,93058.77
2019-01-27T18:12:58.980Z,93064.55
2019-01-27T18:18:07.874Z,93062.61
2019-01-27T18:20:37.538Z,93044.38
2019-01-27T18:23:06.734Z,93038.23
2019-01-27T18:25:35.928Z,93036.16
2019-01-27T18:28:05.288Z,93049.34
2019-01-27T18:30:34.503Z,93056.27
2019-01-27T18:33:03.765Z,93045.66
2019-01-27T18:35:32.991Z,93041.14
2019-01-27T18:38:02.286Z,93048.35
2019-01-27T18:40:31.521Z,93044.92
2019-01-27T18:43:00.775Z,93029.66
2019-01-27T18:45:29.985Z,93044.53
2019-01-27T18:47:59.284Z,93049.64
2019-01-27T18:50:28.483Z,93043.38
2019-01-27T18:53:16.649Z,93052.87
2019-01-27T18:56:04.768Z,93038.40
2019-01-27T18:58:52.945Z,93032.25
2019-01-27T19:01:41.136Z,93033.70
2019-01-27T19:04:29.702Z,93031.48
2019-01-27T19:07:17.867Z,93038.20
2019-01-27T19:10:06.151Z,93037.57
2019-01-27T19:12:54.269Z,93042.56
2019-01-27T19:15:42.443Z,93045.48
2019-01-27T19:18:30.601Z,93044.02
2019-01-27T19:21:18.779Z,93039.02
2019-01-27T19:24:06.900Z,93042.22
2019-01-27T19:26:45.490Z,93037.09
2019-01-27T19:29:21.799Z,93039.66
2019-01-27T19:32:09.977Z,93029.18
2019-01-27T19:34:45.050Z,93036.73
2019-01-27T19:37:33.226Z,93040.42
2019-01-27T19:40:21.348Z,93041.59
2019-01-27T19:43:09.568Z,93053.95
2019-01-27T19:45:57.694Z,93060.82
2019-01-27T19:48:42.645Z,93060.34
2019-01-27T19:51:30.754Z,93055.51
2019-01-27T19:54:07.987Z,93052.15
2019-01-27T19:56:44.400Z,93044.88
2019-01-27T19:59:32.576Z,93052.73
2019-01-27T20:02:20.692Z,93055.95
2019-01-27T20:05:08.881Z,93047.56
2019-01-27T20:07:57.117Z,93058.50
2019-01-27T20:10:45.301Z,93052.52
2019-01-27T20:13:33.798Z,93058.46
2019-01-27T20:16:21.996Z,93060.48
2019-01-27T20:19:10.240Z,93070.61
2019-01-27T20:21:58.556Z,93068.66
2019-01-27T20:24:46.957Z,93064.59
2019-01-27T20:27:35.163Z,93053.20
2019-01-27T20:30:44.368Z,93059.16
2019-01-27T20:33:32.891Z,93067.88
2019-01-27T20:36:21.136Z,93080.06
2019-01-27T20:41:53.804Z,93120.19
2019-01-27T20:44:41.984Z,93120.30
2019-01-27T20:47:30.422Z,93134.85
2019-01-27T20:50:18.544Z,93142.49
2019-01-27T20:53:07.025Z,93136.86
2019-01-27T20:55:46.959Z,93126.03
2019-01-27T20:58:35.241Z,93124.19
2019-01-27T21:04:31.956Z,93121.08
2019-01-27T21:07:20.085Z,93121.31
2019-01-27T21:10:12.376Z,93121.86
2019-01-27T21:12:58.455Z,93114.66
2019-01-27T21:15:47.880Z,93111.42
2019-01-27T21:18:36.846Z,93118.98
2019-01-27T21:21:06.190Z,93113.26
2019-01-27T21:23:35.753Z,93112.09
2019-01-27T21:26:05.096Z,93120.70
2019-01-27T21:28:34.790Z,93117.63
2019-01-27T21:31:04.374Z,93117.58
2019-01-27T21:33:34.020Z,93117.39
2019-01-27T21:36:03.309Z,93127.13
2019-01-27T21:38:32.786Z,93121.32
2019-01-27T21:41:02.147Z,93122.37
2019-01-27T21:43:31.689Z,93112.05
2019-01-27T21:46:00.907Z,93118.20
2019-01-27T21:48:30.152Z,93121.91
2019-01-27T21:50:59.721Z,93121.75
2019-01-27T21:53:28.960Z,93106.29
2019-01-27T21:55:58.139Z,93115.33
2019-01-27T21:58:27.371Z,93111.47
2019-01-27T22:00:56.615Z,93105.90
2019-01-27T22:03:25.866Z,93108.66
2019-01-27T22:06:34.442Z,93109.13
2019-01-27T22:11:58.414Z,93111.00
2019-01-27T22:14:28.009Z,93108.20
2019-01-27T22:16:57.192Z,93112.20
2019-01-27T22:19:26.428Z,93113.18
2019-01-27T22:27:59.476Z,93123.38
2019-01-27T22:30:28.705Z,93121.82
2019-01-27T22:32:58.292Z,93127.63
2019-01-27T22:35:28.145Z,93121.63
2019-01-27T22:37:57.595Z,93121.63
2019-01-27T22:40:26.775Z,93134.02
2019-01-27T22:42:56.071Z,93134.52
2019-01-27T22:45:25.383Z,93132.50
2019-01-27T22:47:54.608Z,93142.00
2019-01-27T22:50:24.090Z,93144.27
2019-01-27T22:52:53.669Z,93142.86
2019-01-27T22:55:22.861Z,93149.13
2019-01-27T22:57:52.130Z,93150.69
2019-01-27T23:01:02.070Z,93150.84
2019-01-27T23:03:53.126Z,93151.66
2019-01-27T23:06:22.898Z,93153.98
2019-01-27T23:08:52.077Z,93168.98
2019-01-27T23:11:21.367Z,93169.61
2019-01-27T23:13:50.771Z,93177.44
2019-01-27T23:16:19.963Z,93177.78
2019-01-27T23:18:49.196Z,93184.20
2019-01-27T23:21:18.374Z,93196.27
2019-01-27T23:23:47.728Z,93191.99
2019-01-27T23:26:16.907Z,93214.55
2019-01-27T23:28:46.140Z,93205.78
2019-01-27T23:31:15.622Z,93203.06
2019-01-27T23:33:44.867Z,93206.25
2019-01-27T23:36:14.046Z,93216.64
2019-01-27T23:38:43.353Z,93215.70
2019-01-27T23:41:12.594Z,93226.70
2019-01-27T23:43:41.828Z,93231.84
2019-01-27T23:46:11.057Z,93241.39
2019-01-27T23:48:40.231Z,93233.74
2019-01-27T23:51:09.468Z,93245.05
2019-01-27T23:53:38.651Z,93236.41
2019-01-27T23:56:07.895Z,93252.89
2019-01-27T23:58:37.071Z,93261.15
